sensor_id;sensor_type;location;lat;lon;timestamp;temperature;humidity
30308;DHT22;17114;52.314;8.910;2022-09-28T00:01:53;8.40;99.90
30308;DHT22;17114;52.314;8.910;2022-09-28T00:04:22;8.40;99.90
30308;DHT22;17114;52.314;8.910;2022-09-28T00:06:50;8.40;99.90
30308;DHT22;17114;52.314;8.910;2022-09-28T00:09:24;8.40;99.90
30308;DHT22;17114;52.314;8.910;2022-09-28T00:11:56;8.40;99.90
30308;DHT22;17114;52.314;8.910;2022-09-28T00:14:23;8.40;99.90
30308;DHT22;17114;52.314;8.910;2022-09-28T00:16:51;8.40;99.90
30308;DHT22;17114;52.314;8.910;2022-09-28T00:19:18;8.40;99.90
30308;DHT22;17114;52.314;8.910;2022-09-28T00:21:45;8.40;99.90
30308;DHT22;17114;52.314;8.910;2022-09-28T00:24:13;8.40;99.90
30308;DHT22;17114;52.314;8.910;2022-09-28T00:26:49;8.50;99.90
30308;DHT22;17114;52.314;8.910;2022-09-28T00:29:39;8.40;99.90
30308;DHT22;17114;52.314;8.910;2022-09-28T00:32:09;8.40;99.90
30308;DHT22;17114;52.314;8.910;2022-09-28T00:34:39;8.40;99.90
30308;DHT22;17114;52.314;8.910;2022-09-28T00:37:08;8.40;99.90
30308;DHT22;17114;52.314;8.910;2022-09-28T00:39:36;8.40;99.90
30308;DHT22;17114;52.314;8.910;2022-09-28T00:42:11;8.40;99.90
30308;DHT22;17114;52.314;8.910;2022-09-28T00:44:49;8.40;99.90
30308;DHT22;17114;52.314;8.910;2022-09-28T00:50:04;8.40;99.90
30308;DHT22;17114;52.314;8.910;2022-09-28T00:55:15;8.30;99.90
30308;DHT22;17114;52.314;8.910;2022-09-28T00:57:45;8.30;99.90
30308;DHT22;17114;52.314;8.910;2022-09-28T01:00:14;8.30;99.90
30308;DHT22;17114;52.314;8.910;2022-09-28T01:02:42;8.30;99.90
30308;DHT22;17114;52.314;8.910;2022-09-28T01:05:10;8.20;99.90
30308;DHT22;17114;52.314;8.910;2022-09-28T01:07:38;8.20;99.90
30308;DHT22;17114;52.314;8.910;2022-09-28T01:10:06;8.10;99.90
30308;DHT22;17114;52.314;8.910;2022-09-28T01:12:33;8.00;99.90
30308;DHT22;17114;52.314;8.910;2022-09-28T01:15:01;8.10;99.90
30308;DHT22;17114;52.314;8.910;2022-09-28T01:20:26;7.80;99.90
30308;DHT22;17114;52.314;8.910;2022-09-28T01:25:54;7.80;99.90
30308;DHT22;17114;52.314;8.910;2022-09-28T01:28:27;7.70;99.90
30308;DHT22;17114;52.314;8.910;2022-09-28T01:31:04;7.70;99.90
30308;DHT22;17114;52.314;8.910;2022-09-28T01:33:49;7.70;99.90
30308;DHT22;17114;52.314;8.910;2022-09-28T01:36:27;7.70;99.90
30308;DHT22;17114;52.314;8.910;2022-09-28T01:39:10;7.70;99.90
30308;DHT22;17114;52.314;8.910;2022-09-28T01:41:52;7.70;99.90
30308;DHT22;17114;52.314;8.910;2022-09-28T01:44:45;7.60;99.90
30308;DHT22;17114;52.314;8.910;2022-09-28T01:47:23;7.60;99.90
30308;DHT22;17114;52.314;8.910;2022-09-28T01:50:08;7.60;99.90
30308;DHT22;17114;52.314;8.910;2022-09-28T01:52:45;7.60;99.90
30308;DHT22;17114;52.314;8.910;2022-09-28T01:58:27;7.60;99.90
30308;DHT22;17114;52.314;8.910;2022-09-28T02:01:03;7.60;99.90
30308;DHT22;17114;52.314;8.910;2022-09-28T02:03:50;7.60;99.90
30308;DHT22;17114;52.314;8.910;2022-09-28T02:06:46;7.60;99.90
30308;DHT22;17114;52.314;8.910;2022-09-28T02:12:57;7.50;99.90
30308;DHT22;17114;52.314;8.910;2022-09-28T02:15:41;7.60;99.90
30308;DHT22;17114;52.314;8.910;2022-09-28T02:18:09;7.60;99.90
30308;DHT22;17114;52.314;8.910;2022-09-28T02:20:51;7.50;99.90
30308;DHT22;17114;52.314;8.910;2022-09-28T02:23:21;7.60;99.90
30308;DHT22;17114;52.314;8.910;2022-09-28T02:26:04;7.50;99.90
30308;DHT22;17114;52.314;8.910;2022-09-28T02:28:32;7.60;99.90
30308;DHT22;17114;52.314;8.910;2022-09-28T02:30:59;7.60;99.90
30308;DHT22;17114;52.314;8.910;2022-09-28T02:33:31;7.60;99.90
30308;DHT22;17114;52.314;8.910;2022-09-28T02:36:00;7.80;99.90
30308;DHT22;17114;52.314;8.910;2022-09-28T02:38:27;7.60;99.90
30308;DHT22;17114;52.314;8.910;2022-09-28T02:41:02;7.60;99.90
30308;DHT22;17114;52.314;8.910;2022-09-28T02:43:56;7.60;99.90
30308;DHT22;17114;52.314;8.910;2022-09-28T02:46:48;7.60;99.90
30308;DHT22;17114;52.314;8.910;2022-09-28T02:49:37;7.60;99.90
30308;DHT22;17114;52.314;8.910;2022-09-28T02:55:40;7.60;99.90
30308;DHT22;17114;52.314;8.910;2022-09-28T02:58:24;7.60;99.90
30308;DHT22;17114;52.314;8.910;2022-09-28T03:01:39;7.60;99.90
30308;DHT22;17114;52.314;8.910;2022-09-28T03:06:54;7.60;99.90
30308;DHT22;17114;52.314;8.910;2022-09-28T03:12:35;7.70;99.90
30308;DHT22;17114;52.314;8.910;2022-09-28T03:15:32;7.70;99.90
30308;DHT22;17114;52.314;8.910;2022-09-28T03:18:13;7.70;99.90
30308;DHT22;17114;52.314;8.910;2022-09-28T03:20:54;7.70;99.90
30308;DHT22;17114;52.314;8.910;2022-09-28T03:23:37;7.60;99.90
30308;DHT22;17114;52.314;8.910;2022-09-28T03:26:38;7.80;99.90
30308;DHT22;17114;52.314;8.910;2022-09-28T03:29:05;7.70;99.90
30308;DHT22;17114;52.314;8.910;2022-09-28T03:31:42;7.70;99.90
30308;DHT22;17114;52.314;8.910;2022-09-28T03:34:11;7.70;99.90
30308;DHT22;17114;52.314;8.910;2022-09-28T03:36:47;7.70;99.90
30308;DHT22;17114;52.314;8.910;2022-09-28T03:39:14;7.80;99.90
30308;DHT22;17114;52.314;8.910;2022-09-28T03:41:42;7.70;99.90
30308;DHT22;17114;52.314;8.910;2022-09-28T03:44:12;7.70;99.90
30308;DHT22;17114;52.314;8.910;2022-09-28T03:46:39;7.70;99.90
30308;DHT22;17114;52.314;8.910;2022-09-28T03:49:20;7.80;99.90
30308;DHT22;17114;52.314;8.910;2022-09-28T03:51:47;7.70;99.90
30308;DHT22;17114;52.314;8.910;2022-09-28T03:54:14;7.50;99.90
30308;DHT22;17114;52.314;8.910;2022-09-28T03:56:41;7.70;99.90
30308;DHT22;17114;52.314;8.910;2022-09-28T03:59:07;7.70;99.90
30308;DHT22;17114;52.314;8.910;2022-09-28T04:01:34;7.80;99.90
30308;DHT22;17114;52.314;8.910;2022-09-28T04:04:01;7.70;99.90
30308;DHT22;17114;52.314;8.910;2022-09-28T04:06:28;7.70;99.90
30308;DHT22;17114;52.314;8.910;2022-09-28T04:08:58;7.70;99.90
30308;DHT22;17114;52.314;8.910;2022-09-28T04:11:25;7.70;99.90
30308;DHT22;17114;52.314;8.910;2022-09-28T04:13:52;7.70;99.90
30308;DHT22;17114;52.314;8.910;2022-09-28T04:16:30;7.70;99.90
30308;DHT22;17114;52.314;8.910;2022-09-28T04:18:57;7.70;99.90
30308;DHT22;17114;52.314;8.910;2022-09-28T04:21:24;7.60;99.90
30308;DHT22;17114;52.314;8.910;2022-09-28T04:23:51;7.60;99.90
30308;DHT22;17114;52.314;8.910;2022-09-28T04:26:25;7.60;99.90
30308;DHT22;17114;52.314;8.910;2022-09-28T04:28:55;7.50;99.90
30308;DHT22;17114;52.314;8.910;2022-09-28T04:31:44;7.50;99.90
30308;DHT22;17114;52.314;8.910;2022-09-28T04:34:13;7.40;99.90
30308;DHT22;17114;52.314;8.910;2022-09-28T04:36:43;7.40;99.90
30308;DHT22;17114;52.314;8.910;2022-09-28T04:39:11;7.50;99.90
30308;DHT22;17114;52.314;8.910;2022-09-28T04:41:40;7.50;99.90
30308;DHT22;17114;52.314;8.910;2022-09-28T04:44:07;7.50;99.90
30308;DHT22;17114;52.314;8.910;2022-09-28T04:46:35;7.50;99.90
30308;DHT22;17114;52.314;8.910;2022-09-28T04:49:02;7.40;99.90
30308;DHT22;17114;52.314;8.910;2022-09-28T04:51:32;7.40;99.90
30308;DHT22;17114;52.314;8.910;2022-09-28T04:53:59;7.40;99.90
30308;DHT22;17114;52.314;8.910;2022-09-28T04:56:25;7.50;99.90
30308;DHT22;17114;52.314;8.910;2022-09-28T04:58:55;7.50;99.90
30308;DHT22;17114;52.314;8.910;2022-09-28T05:01:22;7.50;99.90
30308;DHT22;17114;52.314;8.910;2022-09-28T05:03:50;7.50;99.90
30308;DHT22;17114;52.314;8.910;2022-09-28T05:06:16;7.50;99.90
30308;DHT22;17114;52.314;8.910;2022-09-28T05:08:43;7.50;99.90
30308;DHT22;17114;52.314;8.910;2022-09-28T05:11:13;7.50;99.90
30308;DHT22;17114;52.314;8.910;2022-09-28T05:13:42;7.50;99.90
30308;DHT22;17114;52.314;8.910;2022-09-28T05:16:12;7.70;99.90
30308;DHT22;17114;52.314;8.910;2022-09-28T05:18:57;7.50;99.90
30308;DHT22;17114;52.314;8.910;2022-09-28T05:21:24;7.50;99.90
30308;DHT22;17114;52.314;8.910;2022-09-28T05:23:52;7.60;99.90
30308;DHT22;17114;52.314;8.910;2022-09-28T05:26:22;7.50;99.90
30308;DHT22;17114;52.314;8.910;2022-09-28T05:28:49;7.50;99.90
30308;DHT22;17114;52.314;8.910;2022-09-28T05:31:16;7.50;99.90
30308;DHT22;17114;52.314;8.910;2022-09-28T05:33:52;7.50;99.90
30308;DHT22;17114;52.314;8.910;2022-09-28T05:36:19;7.50;99.90
30308;DHT22;17114;52.314;8.910;2022-09-28T05:38:46;7.60;99.90
30308;DHT22;17114;52.314;8.910;2022-09-28T05:41:13;7.60;99.90
30308;DHT22;17114;52.314;8.910;2022-09-28T05:43:48;7.70;99.90
30308;DHT22;17114;52.314;8.910;2022-09-28T05:46:17;7.70;99.90
30308;DHT22;17114;52.314;8.910;2022-09-28T05:48:45;7.80;99.90
30308;DHT22;17114;52.314;8.910;2022-09-28T05:51:15;7.80;99.90
30308;DHT22;17114;52.314;8.910;2022-09-28T05:53:42;7.80;99.90
30308;DHT22;17114;52.314;8.910;2022-09-28T05:56:09;7.80;99.90
30308;DHT22;17114;52.314;8.910;2022-09-28T05:58:36;7.80;99.90
30308;DHT22;17114;52.314;8.910;2022-09-28T06:01:03;7.80;99.90
30308;DHT22;17114;52.314;8.910;2022-09-28T06:03:30;7.90;99.90
30308;DHT22;17114;52.314;8.910;2022-09-28T06:06:01;7.90;99.90
30308;DHT22;17114;52.314;8.910;2022-09-28T06:08:31;7.90;99.90
30308;DHT22;17114;52.314;8.910;2022-09-28T06:10:59;7.90;99.90
30308;DHT22;17114;52.314;8.910;2022-09-28T06:13:27;8.00;99.90
30308;DHT22;17114;52.314;8.910;2022-09-28T06:15:54;8.00;99.90
30308;DHT22;17114;52.314;8.910;2022-09-28T06:18:21;8.00;99.90
30308;DHT22;17114;52.314;8.910;2022-09-28T06:20:48;8.00;99.90
30308;DHT22;17114;52.314;8.910;2022-09-28T06:23:15;8.00;99.90
30308;DHT22;17114;52.314;8.910;2022-09-28T06:25:42;8.00;99.90
30308;DHT22;17114;52.314;8.910;2022-09-28T06:28:12;8.00;99.90
30308;DHT22;17114;52.314;8.910;2022-09-28T06:30:40;8.10;99.90
30308;DHT22;17114;52.314;8.910;2022-09-28T06:33:12;8.10;99.90
30308;DHT22;17114;52.314;8.910;2022-09-28T06:35:39;8.10;99.90
30308;DHT22;17114;52.314;8.910;2022-09-28T06:38:07;8.10;99.90
30308;DHT22;17114;52.314;8.910;2022-09-28T06:40:34;8.10;99.90
30308;DHT22;17114;52.314;8.910;2022-09-28T06:43:12;8.10;99.90
30308;DHT22;17114;52.314;8.910;2022-09-28T06:45:41;8.10;99.90
30308;DHT22;17114;52.314;8.910;2022-09-28T06:48:09;8.10;99.90
30308;DHT22;17114;52.314;8.910;2022-09-28T06:50:39;8.10;99.90
30308;DHT22;17114;52.314;8.910;2022-09-28T06:53:08;8.20;99.90
30308;DHT22;17114;52.314;8.910;2022-09-28T06:55:44;8.20;99.90
30308;DHT22;17114;52.314;8.910;2022-09-28T06:58:18;8.30;99.90
30308;DHT22;17114;52.314;8.910;2022-09-28T07:00:50;8.30;99.90
30308;DHT22;17114;52.314;8.910;2022-09-28T07:03:19;8.30;99.90
30308;DHT22;17114;52.314;8.910;2022-09-28T07:05:52;8.30;99.90
30308;DHT22;17114;52.314;8.910;2022-09-28T07:08:24;8.30;99.90
30308;DHT22;17114;52.314;8.910;2022-09-28T07:10:52;8.30;99.90
30308;DHT22;17114;52.314;8.910;2022-09-28T07:13:25;8.40;99.90
30308;DHT22;17114;52.314;8.910;2022-09-28T07:16:14;8.40;99.90
30308;DHT22;17114;52.314;8.910;2022-09-28T07:18:41;8.40;99.90
30308;DHT22;17114;52.314;8.910;2022-09-28T07:21:08;8.40;99.90
30308;DHT22;17114;52.314;8.910;2022-09-28T07:23:47;8.60;99.90
30308;DHT22;17114;52.314;8.910;2022-09-28T07:26:20;8.70;99.90
30308;DHT22;17114;52.314;8.910;2022-09-28T07:28:50;8.80;99.90
30308;DHT22;17114;52.314;8.910;2022-09-28T07:31:17;8.90;99.90
30308;DHT22;17114;52.314;8.910;2022-09-28T07:33:44;9.00;99.90
30308;DHT22;17114;52.314;8.910;2022-09-28T07:36:13;9.10;99.90
30308;DHT22;17114;52.314;8.910;2022-09-28T07:38:43;9.20;99.90
30308;DHT22;17114;52.314;8.910;2022-09-28T07:41:10;9.30;99.90
30308;DHT22;17114;52.314;8.910;2022-09-28T07:43:41;9.40;99.90
30308;DHT22;17114;52.314;8.910;2022-09-28T07:46:11;9.30;99.90
30308;DHT22;17114;52.314;8.910;2022-09-28T07:48:42;9.20;99.90
30308;DHT22;17114;52.314;8.910;2022-09-28T07:51:36;9.20;99.90
30308;DHT22;17114;52.314;8.910;2022-09-28T07:54:16;9.30;99.90
30308;DHT22;17114;52.314;8.910;2022-09-28T07:56:44;9.40;99.90
30308;DHT22;17114;52.314;8.910;2022-09-28T07:59:11;9.40;99.90
30308;DHT22;17114;52.314;8.910;2022-09-28T08:04:49;9.70;99.90
30308;DHT22;17114;52.314;8.910;2022-09-28T08:07:17;9.70;99.90
30308;DHT22;17114;52.314;8.910;2022-09-28T08:09:50;9.60;99.90
30308;DHT22;17114;52.314;8.910;2022-09-28T08:12:18;9.50;99.90
30308;DHT22;17114;52.314;8.910;2022-09-28T08:14:47;9.50;99.90
30308;DHT22;17114;52.314;8.910;2022-09-28T08:17:15;9.60;99.90
30308;DHT22;17114;52.314;8.910;2022-09-28T08:19:42;9.50;99.90
30308;DHT22;17114;52.314;8.910;2022-09-28T08:22:31;9.50;99.90
30308;DHT22;17114;52.314;8.910;2022-09-28T08:24:58;9.50;99.90
30308;DHT22;17114;52.314;8.910;2022-09-28T08:27:41;9.60;99.90
30308;DHT22;17114;52.314;8.910;2022-09-28T08:30:11;9.70;99.90
30308;DHT22;17114;52.314;8.910;2022-09-28T08:32:45;9.90;99.90
30308;DHT22;17114;52.314;8.910;2022-09-28T08:35:21;10.10;99.90
30308;DHT22;17114;52.314;8.910;2022-09-28T08:37:52;10.20;99.90
30308;DHT22;17114;52.314;8.910;2022-09-28T08:40:23;10.30;99.90
30308;DHT22;17114;52.314;8.910;2022-09-28T08:42:57;10.60;99.90
30308;DHT22;17114;52.314;8.910;2022-09-28T08:45:28;10.60;99.90
30308;DHT22;17114;52.314;8.910;2022-09-28T08:48:27;10.50;99.90
30308;DHT22;17114;52.314;8.910;2022-09-28T08:51:44;10.50;99.90
30308;DHT22;17114;52.314;8.910;2022-09-28T08:54:32;10.30;99.90
30308;DHT22;17114;52.314;8.910;2022-09-28T08:57:13;10.30;99.90
30308;DHT22;17114;52.314;8.910;2022-09-28T08:59:50;10.40;99.90
30308;DHT22;17114;52.314;8.910;2022-09-28T09:02:36;10.30;99.90
30308;DHT22;17114;52.314;8.910;2022-09-28T09:05:10;10.30;99.90
30308;DHT22;17114;52.314;8.910;2022-09-28T09:08:04;10.30;99.90
30308;DHT22;17114;52.314;8.910;2022-09-28T09:16:02;11.30;99.90
30308;DHT22;17114;52.314;8.910;2022-09-28T09:18:35;11.50;99.90
30308;DHT22;17114;52.314;8.910;2022-09-28T09:23:53;11.50;99.90
30308;DHT22;17114;52.314;8.910;2022-09-28T09:26:36;11.40;99.90
30308;DHT22;17114;52.314;8.910;2022-09-28T09:32:22;11.40;99.90
30308;DHT22;17114;52.314;8.910;2022-09-28T09:48:51;10.90;99.90
30308;DHT22;17114;52.314;8.910;2022-09-28T09:54:23;10.90;99.90
30308;DHT22;17114;52.314;8.910;2022-09-28T09:57:01;10.80;99.90
30308;DHT22;17114;52.314;8.910;2022-09-28T09:59:36;10.70;99.90
30308;DHT22;17114;52.314;8.910;2022-09-28T10:04:43;10.60;99.90
30308;DHT22;17114;52.314;8.910;2022-09-28T10:12:52;10.80;99.90
30308;DHT22;17114;52.314;8.910;2022-09-28T10:15:33;10.80;99.90
30308;DHT22;17114;52.314;8.910;2022-09-28T10:18:09;10.80;99.90
30308;DHT22;17114;52.314;8.910;2022-09-28T10:20:39;10.70;99.90
30308;DHT22;17114;52.314;8.910;2022-09-28T10:23:26;10.70;99.90
30308;DHT22;17114;52.314;8.910;2022-09-28T10:26:08;10.60;99.90
30308;DHT22;17114;52.314;8.910;2022-09-28T10:28:46;10.70;99.90
30308;DHT22;17114;52.314;8.910;2022-09-28T10:31:34;10.70;99.90
30308;DHT22;17114;52.314;8.910;2022-09-28T10:34:02;10.60;99.90
30308;DHT22;17114;52.314;8.910;2022-09-28T10:36:41;10.60;99.90
30308;DHT22;17114;52.314;8.910;2022-09-28T10:41:56;10.70;99.90
30308;DHT22;17114;52.314;8.910;2022-09-28T10:44:26;10.60;99.90
30308;DHT22;17114;52.314;8.910;2022-09-28T10:46:59;10.60;99.90
30308;DHT22;17114;52.314;8.910;2022-09-28T10:49:28;10.70;99.90
30308;DHT22;17114;52.314;8.910;2022-09-28T10:51:57;10.70;99.90
30308;DHT22;17114;52.314;8.910;2022-09-28T10:54:27;10.80;99.90
30308;DHT22;17114;52.314;8.910;2022-09-28T10:56:55;10.90;99.90
30308;DHT22;17114;52.314;8.910;2022-09-28T11:02:35;11.00;99.90
30308;DHT22;17114;52.314;8.910;2022-09-28T11:05:04;10.90;99.90
30308;DHT22;17114;52.314;8.910;2022-09-28T11:07:43;10.80;99.90
30308;DHT22;17114;52.314;8.910;2022-09-28T11:10:24;10.60;99.90
30308;DHT22;17114;52.314;8.910;2022-09-28T11:12:52;10.50;99.90
30308;DHT22;17114;52.314;8.910;2022-09-28T11:15:29;10.50;99.90
30308;DHT22;17114;52.314;8.910;2022-09-28T11:18:26;10.50;99.90
30308;DHT22;17114;52.314;8.910;2022-09-28T11:21:14;10.70;99.90
30308;DHT22;17114;52.314;8.910;2022-09-28T11:23:58;10.90;99.90
30308;DHT22;17114;52.314;8.910;2022-09-28T11:26:43;11.20;99.90
30308;DHT22;17114;52.314;8.910;2022-09-28T11:32:01;11.40;99.90
30308;DHT22;17114;52.314;8.910;2022-09-28T11:34:45;11.40;99.90
30308;DHT22;17114;52.314;8.910;2022-09-28T11:40:47;11.80;99.90
30308;DHT22;17114;52.314;8.910;2022-09-28T11:48:46;12.10;99.90
30308;DHT22;17114;52.314;8.910;2022-09-28T11:51:23;11.90;99.90
30308;DHT22;17114;52.314;8.910;2022-09-28T11:53:55;11.80;99.90
30308;DHT22;17114;52.314;8.910;2022-09-28T11:58:59;12.00;99.90
30308;DHT22;17114;52.314;8.910;2022-09-28T12:04:25;12.10;99.90
30308;DHT22;17114;52.314;8.910;2022-09-28T12:07:13;12.10;99.90
30308;DHT22;17114;52.314;8.910;2022-09-28T12:12:50;11.60;99.90
30308;DHT22;17114;52.314;8.910;2022-09-28T12:15:33;11.30;99.90
30308;DHT22;17114;52.314;8.910;2022-09-28T12:23:56;11.10;99.90
30308;DHT22;17114;52.314;8.910;2022-09-28T12:27:00;11.20;99.90
30308;DHT22;17114;52.314;8.910;2022-09-28T12:29:39;11.30;99.90
30308;DHT22;17114;52.314;8.910;2022-09-28T12:32:11;11.50;99.90
30308;DHT22;17114;52.314;8.910;2022-09-28T12:34:41;11.70;99.90
30308;DHT22;17114;52.314;8.910;2022-09-28T12:43:36;11.90;99.90
30308;DHT22;17114;52.314;8.910;2022-09-28T12:46:27;11.90;99.90
30308;DHT22;17114;52.314;8.910;2022-09-28T12:51:55;11.90;99.90
30308;DHT22;17114;52.314;8.910;2022-09-28T13:00:17;12.00;99.90
30308;DHT22;17114;52.314;8.910;2022-09-28T13:03:10;11.80;99.90
30308;DHT22;17114;52.314;8.910;2022-09-28T13:08:12;10.70;99.90
30308;DHT22;17114;52.314;8.910;2022-09-28T13:11:07;10.20;99.90
30308;DHT22;17114;52.314;8.910;2022-09-28T13:22:41;10.00;99.90
30308;DHT22;17114;52.314;8.910;2022-09-28T13:25:18;10.10;99.90
30308;DHT22;17114;52.314;8.910;2022-09-28T13:27:59;10.10;99.90
30308;DHT22;17114;52.314;8.910;2022-09-28T13:30:26;10.20;99.90
30308;DHT22;17114;52.314;8.910;2022-09-28T13:33:00;10.30;99.90
30308;DHT22;17114;52.314;8.910;2022-09-28T13:35:27;10.40;99.90
30308;DHT22;17114;52.314;8.910;2022-09-28T13:49:18;11.10;99.90
30308;DHT22;17114;52.314;8.910;2022-09-28T13:52:03;11.10;99.90
30308;DHT22;17114;52.314;8.910;2022-09-28T14:01:20;11.10;99.90
30308;DHT22;17114;52.314;8.910;2022-09-28T14:06:31;11.10;99.90
30308;DHT22;17114;52.314;8.910;2022-09-28T14:09:08;11.00;99.90
30308;DHT22;17114;52.314;8.910;2022-09-28T14:12:01;10.90;99.90
30308;DHT22;17114;52.314;8.910;2022-09-28T14:14:45;10.90;99.90
30308;DHT22;17114;52.314;8.910;2022-09-28T14:19:58;10.70;99.90
30308;DHT22;17114;52.314;8.910;2022-09-28T14:22:28;10.70;99.90
30308;DHT22;17114;52.314;8.910;2022-09-28T14:30:54;10.40;99.90
30308;DHT22;17114;52.314;8.910;2022-09-28T14:33:29;10.50;99.90
30308;DHT22;17114;52.314;8.910;2022-09-28T14:36:22;10.50;99.90
30308;DHT22;17114;52.314;8.910;2022-09-28T14:39:30;10.40;99.90
30308;DHT22;17114;52.314;8.910;2022-09-28T14:42:20;10.40;99.90
30308;DHT22;17114;52.314;8.910;2022-09-28T14:47:43;10.50;99.90
30308;DHT22;17114;52.314;8.910;2022-09-28T14:50:28;10.60;99.90
30308;DHT22;17114;52.314;8.910;2022-09-28T14:53:09;10.60;99.90
30308;DHT22;17114;52.314;8.910;2022-09-28T14:56:02;10.60;99.90
30308;DHT22;17114;52.314;8.910;2022-09-28T14:58:35;10.60;99.90
30308;DHT22;17114;52.314;8.910;2022-09-28T15:01:08;10.60;99.90
30308;DHT22;17114;52.314;8.910;2022-09-28T15:03:41;10.70;99.90
30308;DHT22;17114;52.314;8.910;2022-09-28T15:06:15;10.70;99.90
30308;DHT22;17114;52.314;8.910;2022-09-28T15:08:43;10.80;99.90
30308;DHT22;17114;52.314;8.910;2022-09-28T15:11:24;10.80;99.90
30308;DHT22;17114;52.314;8.910;2022-09-28T15:14:04;10.80;99.90
30308;DHT22;17114;52.314;8.910;2022-09-28T15:16:32;10.90;99.90
30308;DHT22;17114;52.314;8.910;2022-09-28T15:19:22;10.90;99.90
30308;DHT22;17114;52.314;8.910;2022-09-28T15:21:53;10.90;99.90
30308;DHT22;17114;52.314;8.910;2022-09-28T15:24:32;11.00;99.90
30308;DHT22;17114;52.314;8.910;2022-09-28T15:27:02;11.00;99.90
30308;DHT22;17114;52.314;8.910;2022-09-28T15:29:29;11.00;99.90
30308;DHT22;17114;52.314;8.910;2022-09-28T15:31:59;11.00;99.90
30308;DHT22;17114;52.314;8.910;2022-09-28T15:34:34;11.00;99.90
30308;DHT22;17114;52.314;8.910;2022-09-28T15:37:30;10.90;99.90
30308;DHT22;17114;52.314;8.910;2022-09-28T15:39:59;10.90;99.90
30308;DHT22;17114;52.314;8.910;2022-09-28T15:42:26;10.80;99.90
30308;DHT22;17114;52.314;8.910;2022-09-28T15:47:40;10.80;99.90
30308;DHT22;17114;52.314;8.910;2022-09-28T15:50:21;10.80;99.90
30308;DHT22;17114;52.314;8.910;2022-09-28T15:52:57;10.70;99.90
30308;DHT22;17114;52.314;8.910;2022-09-28T15:55:38;10.80;99.90
30308;DHT22;17114;52.314;8.910;2022-09-28T16:00:45;10.70;99.90
30308;DHT22;17114;52.314;8.910;2022-09-28T16:03:28;10.70;99.90
30308;DHT22;17114;52.314;8.910;2022-09-28T16:06:09;10.70;99.90
30308;DHT22;17114;52.314;8.910;2022-09-28T16:08:44;10.70;99.90
30308;DHT22;17114;52.314;8.910;2022-09-28T16:14:16;10.70;99.90
30308;DHT22;17114;52.314;8.910;2022-09-28T16:16:48;10.60;99.90
30308;DHT22;17114;52.314;8.910;2022-09-28T16:19:36;10.60;99.90
30308;DHT22;17114;52.314;8.910;2022-09-28T16:22:06;10.60;99.90
30308;DHT22;17114;52.314;8.910;2022-09-28T16:24:39;10.60;99.90
30308;DHT22;17114;52.314;8.910;2022-09-28T16:27:25;10.50;99.90
30308;DHT22;17114;52.314;8.910;2022-09-28T16:30:25;10.50;99.90
30308;DHT22;17114;52.314;8.910;2022-09-28T16:33:05;10.50;99.90
30308;DHT22;17114;52.314;8.910;2022-09-28T16:38:12;10.40;99.90
30308;DHT22;17114;52.314;8.910;2022-09-28T16:40:44;10.40;99.90
30308;DHT22;17114;52.314;8.910;2022-09-28T16:43:27;10.40;99.90
30308;DHT22;17114;52.314;8.910;2022-09-28T16:45:58;10.30;99.90
30308;DHT22;17114;52.314;8.910;2022-09-28T16:48:30;10.30;99.90
30308;DHT22;17114;52.314;8.910;2022-09-28T16:50:58;10.30;99.90
30308;DHT22;17114;52.314;8.910;2022-09-28T16:53:25;10.30;99.90
30308;DHT22;17114;52.314;8.910;2022-09-28T16:56:11;10.30;99.90
30308;DHT22;17114;52.314;8.910;2022-09-28T16:58:39;10.20;99.90
30308;DHT22;17114;52.314;8.910;2022-09-28T17:01:09;10.20;99.90
30308;DHT22;17114;52.314;8.910;2022-09-28T17:03:37;10.10;99.90
30308;DHT22;17114;52.314;8.910;2022-09-28T17:06:10;10.10;99.90
30308;DHT22;17114;52.314;8.910;2022-09-28T17:08:38;10.00;99.90
30308;DHT22;17114;52.314;8.910;2022-09-28T17:11:11;10.00;99.90
30308;DHT22;17114;52.314;8.910;2022-09-28T17:13:46;9.90;99.90
30308;DHT22;17114;52.314;8.910;2022-09-28T17:16:16;9.90;99.90
30308;DHT22;17114;52.314;8.910;2022-09-28T17:18:45;9.80;99.90
30308;DHT22;17114;52.314;8.910;2022-09-28T17:21:17;9.80;99.90
30308;DHT22;17114;52.314;8.910;2022-09-28T17:23:46;9.70;99.90
30308;DHT22;17114;52.314;8.910;2022-09-28T17:26:23;9.70;99.90
30308;DHT22;17114;52.314;8.910;2022-09-28T17:28:57;9.60;99.90
30308;DHT22;17114;52.314;8.910;2022-09-28T17:31:38;9.70;99.90
30308;DHT22;17114;52.314;8.910;2022-09-28T17:34:05;9.60;99.90
30308;DHT22;17114;52.314;8.910;2022-09-28T17:36:32;9.60;99.90
30308;DHT22;17114;52.314;8.910;2022-09-28T17:39:00;9.50;99.90
30308;DHT22;17114;52.314;8.910;2022-09-28T17:41:27;9.50;99.90
30308;DHT22;17114;52.314;8.910;2022-09-28T17:43:55;9.50;99.90
30308;DHT22;17114;52.314;8.910;2022-09-28T17:46:33;9.50;99.90
30308;DHT22;17114;52.314;8.910;2022-09-28T17:49:04;9.50;99.90
30308;DHT22;17114;52.314;8.910;2022-09-28T17:51:34;9.50;99.90
30308;DHT22;17114;52.314;8.910;2022-09-28T17:54:04;9.50;99.90
30308;DHT22;17114;52.314;8.910;2022-09-28T17:56:33;9.50;99.90
30308;DHT22;17114;52.314;8.910;2022-09-28T17:59:03;9.40;99.90
30308;DHT22;17114;52.314;8.910;2022-09-28T18:01:36;9.50;99.90
30308;DHT22;17114;52.314;8.910;2022-09-28T18:04:06;9.50;99.90
30308;DHT22;17114;52.314;8.910;2022-09-28T18:06:35;9.60;99.90
30308;DHT22;17114;52.314;8.910;2022-09-28T18:09:03;9.50;99.90
30308;DHT22;17114;52.314;8.910;2022-09-28T18:11:32;9.50;99.90
30308;DHT22;17114;52.314;8.910;2022-09-28T18:13:59;9.50;99.90
30308;DHT22;17114;52.314;8.910;2022-09-28T18:16:27;9.40;99.90
30308;DHT22;17114;52.314;8.910;2022-09-28T18:18:55;9.40;99.90
30308;DHT22;17114;52.314;8.910;2022-09-28T18:21:22;9.40;99.90
30308;DHT22;17114;52.314;8.910;2022-09-28T18:23:49;9.40;99.90
30308;DHT22;17114;52.314;8.910;2022-09-28T18:26:17;9.40;99.90
30308;DHT22;17114;52.314;8.910;2022-09-28T18:28:47;9.40;99.90
30308;DHT22;17114;52.314;8.910;2022-09-28T18:31:19;9.40;99.90
30308;DHT22;17114;52.314;8.910;2022-09-28T18:33:46;9.30;99.90
30308;DHT22;17114;52.314;8.910;2022-09-28T18:36:16;9.30;99.90
30308;DHT22;17114;52.314;8.910;2022-09-28T18:38:44;9.20;99.90
30308;DHT22;17114;52.314;8.910;2022-09-28T18:41:14;9.20;99.90
30308;DHT22;17114;52.314;8.910;2022-09-28T18:43:47;9.20;99.90
30308;DHT22;17114;52.314;8.910;2022-09-28T18:46:16;9.20;99.90
30308;DHT22;17114;52.314;8.910;2022-09-28T18:48:44;9.20;99.90
30308;DHT22;17114;52.314;8.910;2022-09-28T18:51:13;9.20;99.90
30308;DHT22;17114;52.314;8.910;2022-09-28T18:53:41;9.20;99.90
30308;DHT22;17114;52.314;8.910;2022-09-28T18:56:13;9.20;99.90
30308;DHT22;17114;52.314;8.910;2022-09-28T18:58:41;9.20;99.90
30308;DHT22;17114;52.314;8.910;2022-09-28T19:01:11;9.20;99.90
30308;DHT22;17114;52.314;8.910;2022-09-28T19:04:01;9.20;99.90
30308;DHT22;17114;52.314;8.910;2022-09-28T19:06:29;9.20;99.90
30308;DHT22;17114;52.314;8.910;2022-09-28T19:08:57;9.20;99.90
30308;DHT22;17114;52.314;8.910;2022-09-28T19:11:26;9.20;99.90